Time;durP1;ratioP1;P1;durP2;ratioP2;P2;SDS_P1;SDS_P2;PMS_P1;PMS_P2;Temp;Humidity;BMP_temperature;BMP_pressure;BME280_temperature;BME280_humidity;BME280_pressure;Samples;Min_cycle;Max_cycle;Signal;HPM_P1;HPM_P2
2023/07/09 00:01:21;;;;;;;4.22;3.50;;;27.20;73.70;;;;;;5012726;28;20030;-81
2023/07/09 00:03:51;;;;;;;5.40;3.70;;;27.10;73.70;;;;;;5012915;28;20038;-80
2023/07/09 00:06:17;;;;;;;5.78;4.38;;;27.20;73.70;;;;;;5012475;28;20520;-80
2023/07/09 00:08:46;;;;;;;7.55;4.15;;;27.10;73.50;;;;;;5012998;28;20113;-79
2023/07/09 00:11:12;;;;;;;6.85;4.32;;;27.10;73.40;;;;;;5011246;28;20014;-79
2023/07/09 00:13:38;;;;;;;6.00;3.80;;;27.10;74.00;;;;;;5020088;28;20030;-78
2023/07/09 00:16:19;;;;;;;3.83;3.42;;;27.10;73.30;;;;;;5012653;28;20097;-78
2023/07/09 00:18:44;;;;;;;5.30;3.70;;;27.10;73.40;;;;;;5012777;28;20029;-79
2023/07/09 00:21:10;;;;;;;4.82;3.55;;;27.10;73.20;;;;;;5012642;28;20096;-79
2023/07/09 00:23:38;;;;;;;5.20;3.75;;;27.10;73.20;;;;;;5011867;28;20065;-80
2023/07/09 00:26:13;;;;;;;5.32;3.60;;;27.10;73.40;;;;;;5011961;28;20145;-79
2023/07/09 00:28:42;;;;;;;5.32;3.55;;;27.10;73.40;;;;;;5012154;28;20038;-79
2023/07/09 00:31:14;;;;;;;4.53;3.73;;;27.10;73.30;;;;;;5012463;28;20030;-79
2023/07/09 00:33:41;;;;;;;7.20;3.53;;;27.00;73.30;;;;;;5014224;28;20034;-79
2023/07/09 00:36:23;;;;;;;6.35;3.80;;;27.00;73.30;;;;;;5015224;28;20033;-80
2023/07/09 00:38:51;;;;;;;7.07;4.13;;;26.90;73.40;;;;;;5001813;28;20514;-80
2023/07/09 00:41:20;;;;;;;6.03;3.75;;;26.90;73.50;;;;;;5016191;28;20116;-80
2023/07/09 00:43:47;;;;;;;5.20;4.13;;;26.90;73.60;;;;;;5016212;28;20038;-80
2023/07/09 00:46:27;;;;;;;6.60;4.20;;;26.90;73.80;;;;;;5015314;28;20033;-80
2023/07/09 00:49:05;;;;;;;6.88;4.50;;;26.90;73.60;;;;;;5002012;28;20088;-80
2023/07/09 00:51:33;;;;;;;6.13;4.50;;;26.90;73.40;;;;;;4989661;28;20105;-80
2023/07/09 00:54:07;;;;;;;9.38;5.32;;;26.90;73.40;;;;;;5015743;28;20042;-79
2023/07/09 00:56:42;;;;;;;7.80;4.85;;;26.80;73.20;;;;;;5015762;28;20025;-79
2023/07/09 00:59:13;;;;;;;8.63;4.97;;;26.80;73.20;;;;;;5015568;28;20056;-79
2023/07/09 01:01:40;;;;;;;5.88;4.53;;;26.90;73.30;;;;;;5016589;28;20037;-79
2023/07/09 01:04:07;;;;;;;5.85;4.32;;;26.90;73.20;;;;;;5015545;28;20030;-79
2023/07/09 01:06:45;;;;;;;6.80;4.70;;;26.80;73.30;;;;;;5015733;28;20049;-79
2023/07/09 01:09:11;;;;;;;5.95;4.00;;;26.80;73.60;;;;;;5016284;28;20040;-79
2023/07/09 01:11:38;;;;;;;5.88;4.43;;;26.80;73.80;;;;;;5015551;28;20034;-79
2023/07/09 01:14:07;;;;;;;7.68;4.55;;;26.90;74.10;;;;;;5016481;28;20037;-79
2023/07/09 01:16:37;;;;;;;5.35;4.03;;;26.80;74.30;;;;;;5015821;28;20058;-79
2023/07/09 01:19:05;;;;;;;5.88;4.15;;;26.80;74.30;;;;;;5016700;28;20054;-79
2023/07/09 01:21:32;;;;;;;9.55;3.55;;;26.80;74.40;;;;;;5016151;28;20033;-79
2023/07/09 01:23:58;;;;;;;5.00;4.30;;;26.80;74.60;;;;;;5014872;28;20026;-79
2023/07/09 01:26:26;;;;;;;4.82;3.72;;;26.80;74.70;;;;;;5016042;28;20030;-79
2023/07/09 01:28:56;;;;;;;6.93;4.10;;;26.80;74.80;;;;;;5015950;28;20125;-79
2023/07/09 01:31:23;;;;;;;5.00;3.92;;;26.80;74.90;;;;;;4998277;28;20414;-79
2023/07/09 01:33:48;;;;;;;6.55;4.38;;;26.80;74.80;;;;;;5015083;28;20061;-79
2023/07/09 01:36:23;;;;;;;6.05;4.35;;;26.70;74.90;;;;;;5015198;28;20061;-79
2023/07/09 01:38:49;;;;;;;6.57;4.30;;;26.70;74.60;;;;;;5015898;28;20026;-80
2023/07/09 01:41:15;;;;;;;5.40;3.88;;;26.70;74.50;;;;;;5015817;28;20036;-80
2023/07/09 01:43:42;;;;;;;5.60;4.03;;;26.70;74.70;;;;;;5015214;28;20042;-80
2023/07/09 01:46:10;;;;;;;5.97;3.70;;;26.70;74.90;;;;;;5015045;28;20101;-79
2023/07/09 01:48:40;;;;;;;4.68;3.40;;;26.70;75.10;;;;;;5014411;28;20046;-80
2023/07/09 01:51:09;;;;;;;5.30;3.50;;;26.60;75.00;;;;;;5015396;28;20069;-80
2023/07/09 01:53:37;;;;;;;4.43;3.53;;;26.60;75.10;;;;;;5014411;28;20029;-80
2023/07/09 01:56:03;;;;;;;4.95;3.42;;;26.60;75.00;;;;;;5014441;28;20029;-80
2023/07/09 01:58:31;;;;;;;5.65;3.45;;;26.60;75.00;;;;;;4998431;28;20029;-80
2023/07/09 02:00:58;;;;;;;4.78;3.53;;;26.60;74.70;;;;;;5015472;28;20069;-79
2023/07/09 02:03:24;;;;;;;5.32;3.55;;;26.60;74.40;;;;;;4997394;28;20438;-79
2023/07/09 02:05:53;;;;;;;4.45;3.28;;;26.60;74.10;;;;;;5014222;28;20072;-79
2023/07/09 02:08:19;;;;;;;4.20;2.97;;;26.50;74.10;;;;;;4996443;28;20052;-79
2023/07/09 02:10:47;;;;;;;6.32;3.95;;;26.50;74.30;;;;;;5014999;28;20037;-79
2023/07/09 02:13:13;;;;;;;6.18;3.58;;;26.50;74.40;;;;;;5014786;28;20066;-79
2023/07/09 02:15:43;;;;;;;4.40;3.50;;;26.50;74.40;;;;;;5015078;28;20054;-79
2023/07/09 02:18:12;;;;;;;4.60;3.60;;;26.40;74.70;;;;;;4995074;28;20510;-79
2023/07/09 02:20:37;;;;;;;4.13;3.37;;;26.50;74.30;;;;;;4992421;28;20069;-79
2023/07/09 02:23:03;;;;;;;5.10;3.22;;;26.40;74.30;;;;;;4994805;28;20127;-80
2023/07/09 02:25:29;;;;;;;3.60;2.95;;;26.40;74.50;;;;;;4995417;28;20034;-80
2023/07/09 02:27:55;;;;;;;4.68;3.38;;;26.40;74.90;;;;;;4977863;28;20034;-81
2023/07/09 02:30:20;;;;;;;7.80;3.50;;;26.40;75.20;;;;;;4994278;28;20088;-81
2023/07/09 02:32:46;;;;;;;5.05;3.22;;;26.40;75.50;;;;;;4994048;28;20124;-80
2023/07/09 02:35:12;;;;;;;6.80;3.38;;;26.40;75.50;;;;;;4994319;28;20034;-80
2023/07/09 02:37:38;;;;;;;5.47;3.70;;;26.40;75.50;;;;;;4994869;28;20032;-79
2023/07/09 02:40:05;;;;;;;5.15;3.33;;;26.40;75.40;;;;;;4994656;28;20121;-79
2023/07/09 02:42:31;;;;;;;4.78;3.40;;;26.30;75.30;;;;;;4994850;28;20450;-80
2023/07/09 02:44:56;;;;;;;5.40;3.28;;;26.30;75.50;;;;;;4994423;28;20233;-81
2023/07/09 02:47:22;;;;;;;4.53;3.25;;;26.30;75.80;;;;;;4994726;28;20085;-80
2023/07/09 02:49:48;;;;;;;5.28;3.35;;;26.30;76.00;;;;;;4992988;28;20049;-80
2023/07/09 02:52:14;;;;;;;4.60;3.45;;;26.30;76.10;;;;;;4994441;28;20031;-81
2023/07/09 02:54:39;;;;;;;4.10;3.25;;;26.30;76.10;;;;;;4994463;28;20030;-80
2023/07/09 02:57:05;;;;;;;7.10;3.58;;;26.20;76.30;;;;;;4993326;28;20026;-80
2023/07/09 02:59:32;;;;;;;5.38;3.42;;;26.20;76.30;;;;;;4994154;28;20038;-80
2023/07/09 03:01:59;;;;;;;4.40;3.10;;;26.20;76.30;;;;;;4994236;28;20030;-79
2023/07/09 03:04:25;;;;;;;4.10;3.25;;;26.20;75.90;;;;;;4993811;28;20466;-80
2023/07/09 03:06:52;;;;;;;4.68;3.60;;;26.20;75.70;;;;;;4993885;28;20033;-80
2023/07/09 03:09:18;;;;;;;5.97;3.78;;;26.10;75.60;;;;;;4993500;28;20411;-79
2023/07/09 03:11:44;;;;;;;6.65;4.05;;;26.10;75.60;;;;;;4993470;28;20518;-79
2023/07/09 03:14:10;;;;;;;5.13;3.78;;;26.10;75.60;;;;;;4993921;28;20034;-79
2023/07/09 03:16:36;;;;;;;4.82;3.70;;;26.10;75.80;;;;;;4995209;28;20041;-79
2023/07/09 03:19:04;;;;;;;5.25;3.63;;;26.10;75.90;;;;;;5013029;28;20033;-81
2023/07/09 03:21:30;;;;;;;6.35;4.07;;;26.00;75.90;;;;;;5014338;28;20073;-80
2023/07/09 03:23:56;;;;;;;4.90;3.50;;;26.00;76.10;;;;;;5013595;28;20061;-80
2023/07/09 03:26:22;;;;;;;5.95;4.15;;;26.00;76.20;;;;;;5013818;28;20552;-79
2023/07/09 03:28:48;;;;;;;6.68;4.15;;;26.00;76.40;;;;;;4997466;28;20058;-80
2023/07/09 03:31:13;;;;;;;7.70;3.75;;;26.00;76.50;;;;;;4995548;28;20065;-80
2023/07/09 03:33:39;;;;;;;4.60;3.33;;;25.90;76.60;;;;;;4995391;28;20077;-80
2023/07/09 03:36:05;;;;;;;6.50;3.55;;;25.90;76.70;;;;;;5013162;28;20033;-80
2023/07/09 03:38:31;;;;;;;4.40;3.20;;;25.90;76.90;;;;;;5011754;28;20026;-80
2023/07/09 03:40:57;;;;;;;5.78;3.75;;;25.90;77.00;;;;;;4995606;28;20033;-80
2023/07/09 03:43:23;;;;;;;6.80;3.80;;;25.90;77.10;;;;;;5013605;28;20366;-80
2023/07/09 03:45:50;;;;;;;6.32;4.05;;;25.90;77.20;;;;;;5012064;28;20496;-80
2023/07/09 03:48:18;;;;;;;5.88;3.40;;;25.90;77.20;;;;;;4995840;28;20130;-80
2023/07/09 03:50:45;;;;;;;6.72;4.03;;;25.90;77.30;;;;;;5013291;28;20574;-80
2023/07/09 03:53:12;;;;;;;11.48;3.67;;;25.90;77.30;;;;;;5013308;28;20040;-80
2023/07/09 03:55:38;;;;;;;6.97;4.13;;;25.90;77.40;;;;;;5012663;28;20030;-80
2023/07/09 03:58:04;;;;;;;6.32;4.18;;;25.90;77.60;;;;;;4994664;28;20076;-80
2023/07/09 04:00:31;;;;;;;4.90;3.78;;;25.90;78.00;;;;;;5012699;28;20066;-81
2023/07/09 04:02:57;;;;;;;4.20;3.50;;;25.90;78.10;;;;;;5013268;28;20026;-81
2023/07/09 04:05:24;;;;;;;5.75;4.20;;;25.90;78.10;;;;;;5016471;28;20052;-82
2023/07/09 04:07:50;;;;;;;5.30;3.60;;;25.90;78.00;;;;;;5021291;28;20030;-80
2023/07/09 04:10:16;;;;;;;5.53;4.05;;;25.90;77.70;;;;;;5012011;28;20034;-81
2023/07/09 04:12:42;;;;;;;4.43;3.40;;;25.90;77.20;;;;;;5013035;28;20033;-80
2023/07/09 04:15:08;;;;;;;6.50;4.10;;;25.90;77.00;;;;;;5012050;28;20475;-81
2023/07/09 04:17:34;;;;;;;5.50;3.95;;;25.90;76.80;;;;;;5012672;28;20060;-81
2023/07/09 04:19:59;;;;;;;6.50;3.90;;;25.90;76.80;;;;;;5012858;28;20470;-81
2023/07/09 04:22:25;;;;;;;6.97;4.13;;;25.90;76.70;;;;;;5011514;28;20116;-80
2023/07/09 04:24:52;;;;;;;10.88;4.55;;;25.90;76.70;;;;;;5011821;28;20025;-80
2023/07/09 04:27:18;;;;;;;7.63;4.32;;;25.80;76.80;;;;;;5013034;28;20081;-80
2023/07/09 04:29:44;;;;;;;6.00;4.15;;;25.80;76.80;;;;;;5012930;28;20467;-80
2023/07/09 04:32:15;;;;;;;5.68;4.07;;;25.80;77.00;;;;;;5012631;28;20030;-81
2023/07/09 04:34:41;;;;;;;6.70;4.63;;;25.70;77.10;;;;;;5011164;28;20033;-81
2023/07/09 04:37:09;;;;;;;6.18;4.35;;;25.70;77.40;;;;;;5012106;28;20080;-80
2023/07/09 04:39:35;;;;;;;6.82;3.97;;;25.70;77.90;;;;;;5012708;28;20030;-81
2023/07/09 04:42:01;;;;;;;7.10;4.55;;;25.70;77.60;;;;;;5013060;28;20088;-81
2023/07/09 04:44:27;;;;;;;6.65;4.13;;;25.60;77.80;;;;;;5012264;28;20041;-79
2023/07/09 04:46:53;;;;;;;10.20;4.65;;;25.70;77.70;;;;;;4994407;28;20529;-79
2023/07/09 04:49:19;;;;;;;8.75;4.78;;;25.70;77.60;;;;;;5012769;28;20116;-80
2023/07/09 04:51:44;;;;;;;6.22;4.80;;;25.70;77.60;;;;;;4994900;28;20100;-80
2023/07/09 04:54:10;;;;;;;9.68;4.18;;;25.60;77.70;;;;;;5013061;28;20393;-79
2023/07/09 04:56:37;;;;;;;6.85;4.35;;;25.70;77.70;;;;;;5011428;28;20049;-78
2023/07/09 04:59:03;;;;;;;5.85;4.30;;;25.70;77.70;;;;;;5012634;28;20029;-79
2023/07/09 05:01:28;;;;;;;5.57;4.22;;;25.70;77.90;;;;;;5009479;28;20346;-79
2023/07/09 05:03:55;;;;;;;6.97;4.65;;;25.70;77.80;;;;;;5011783;28;20144;-79
2023/07/09 05:06:21;;;;;;;8.15;4.63;;;25.80;78.10;;;;;;5012596;28;20029;-79
2023/07/09 05:08:48;;;;;;;6.00;4.00;;;25.80;77.90;;;;;;4993770;28;20057;-79
2023/07/09 05:11:14;;;;;;;7.35;4.00;;;25.90;78.00;;;;;;4993479;28;20080;-79
2023/07/09 05:13:40;;;;;;;7.22;4.00;;;25.90;77.70;;;;;;5008973;28;20081;-79
2023/07/09 05:16:06;;;;;;;5.25;3.97;;;25.90;76.70;;;;;;5009437;28;20025;-79
2023/07/09 05:18:32;;;;;;;8.20;4.43;;;25.90;76.70;;;;;;4992658;28;20041;-78
2023/07/09 05:20:58;;;;;;;6.05;4.50;;;25.90;76.40;;;;;;4995217;28;20088;-78
2023/07/09 05:23:27;;;;;;;7.05;4.53;;;25.90;76.30;;;;;;4995223;28;20030;-78
2023/07/09 05:25:57;;;;;;;5.43;3.85;;;26.00;76.30;;;;;;4996381;28;20026;-79
2023/07/09 05:28:23;;;;;;;6.90;4.00;;;26.00;76.50;;;;;;5017493;28;20707;-79
2023/07/09 05:30:49;;;;;;;5.72;4.47;;;26.00;76.90;;;;;;4997146;28;20121;-79
2023/07/09 05:33:17;;;;;;;6.00;4.60;;;26.00;77.20;;;;;;5015820;28;20418;-79
2023/07/09 05:35:43;;;;;;;8.68;6.30;;;26.10;77.40;;;;;;5014880;28;20085;-79
2023/07/09 05:38:08;;;;;;;9.48;6.15;;;26.10;77.10;;;;;;4997459;28;20034;-78
2023/07/09 05:40:34;;;;;;;9.60;7.45;;;26.00;77.00;;;;;;4997201;28;20458;-77
2023/07/09 05:42:59;;;;;;;7.30;6.50;;;26.00;77.50;;;;;;5015838;28;20045;-86
2023/07/09 05:45:25;;;;;;;9.68;5.85;;;26.00;77.70;;;;;;5015206;28;20034;-84
2023/07/09 05:47:51;;;;;;;7.78;5.18;;;25.90;77.80;;;;;;5015335;28;20021;-78
2023/07/09 05:50:17;;;;;;;8.98;6.00;;;25.90;78.20;;;;;;5015234;28;20370;-77
2023/07/09 05:52:42;;;;;;;8.50;5.80;;;26.00;78.20;;;;;;5014506;28;20026;-77
2023/07/09 05:55:08;;;;;;;10.80;5.78;;;26.00;78.00;;;;;;5015025;28;20030;-78
2023/07/09 05:57:34;;;;;;;8.25;5.50;;;26.00;78.10;;;;;;5014751;28;20041;-78
2023/07/09 05:59:59;;;;;;;6.82;5.65;;;26.10;78.30;;;;;;5014747;28;20034;-78
2023/07/09 06:02:25;;;;;;;10.02;7.00;;;26.10;78.20;;;;;;5015603;28;20021;-78
2023/07/09 06:04:51;;;;;;;12.77;5.68;;;26.20;78.30;;;;;;5015748;28;20022;-77
2023/07/09 06:07:18;;;;;;;14.93;7.80;;;26.20;77.90;;;;;;5015420;28;20089;-78
2023/07/09 06:09:45;;;;;;;9.95;5.78;;;26.20;78.10;;;;;;5015357;28;20501;-77
2023/07/09 06:12:11;;;;;;;7.07;5.63;;;26.20;78.00;;;;;;4995487;28;20030;-78
2023/07/09 06:14:37;;;;;;;5.95;4.43;;;26.30;77.80;;;;;;5015019;28;20093;-78
2023/07/09 06:17:03;;;;;;;6.63;5.03;;;26.30;77.40;;;;;;5014182;28;20046;-77
2023/07/09 06:19:29;;;;;;;7.82;5.28;;;26.30;77.10;;;;;;5014648;28;20509;-77
2023/07/09 06:21:55;;;;;;;10.15;5.40;;;26.40;77.20;;;;;;5014855;28;20025;-77
2023/07/09 06:24:22;;;;;;;7.55;5.05;;;26.40;77.50;;;;;;5015092;28;20072;-77
2023/07/09 06:26:47;;;;;;;7.22;5.28;;;26.40;77.90;;;;;;5014357;28;20458;-77
2023/07/09 06:29:13;;;;;;;6.68;5.07;;;26.50;78.10;;;;;;5014853;28;20034;-77
2023/07/09 06:31:40;;;;;;;6.80;4.35;;;26.50;78.00;;;;;;5013363;28;20101;-77
2023/07/09 06:34:09;;;;;;;7.38;4.55;;;26.60;77.80;;;;;;5014420;28;20296;-77
2023/07/09 06:36:35;;;;;;;6.50;4.65;;;26.60;77.70;;;;;;5014000;28;20034;-77
2023/07/09 06:39:02;;;;;;;5.47;4.50;;;26.70;77.20;;;;;;5014559;28;20061;-77
2023/07/09 06:41:28;;;;;;;7.05;4.82;;;26.70;76.40;;;;;;5014517;28;20100;-78
2023/07/09 06:43:54;;;;;;;6.35;4.30;;;26.80;76.10;;;;;;5014300;28;20374;-78
2023/07/09 06:46:20;;;;;;;5.93;4.20;;;26.80;75.90;;;;;;5013740;28;20042;-78
2023/07/09 06:48:46;;;;;;;7.53;4.00;;;26.80;75.90;;;;;;5014453;28;20153;-77
2023/07/09 06:51:12;;;;;;;6.45;4.18;;;26.80;75.80;;;;;;5014423;28;20104;-77
2023/07/09 06:53:39;;;;;;;7.18;3.95;;;26.90;75.90;;;;;;5014622;28;20033;-77
2023/07/09 06:56:05;;;;;;;4.40;3.75;;;27.00;76.00;;;;;;4996358;28;20042;-77
2023/07/09 06:58:33;;;;;;;6.63;3.97;;;27.00;75.60;;;;;;5014725;28;20029;-77
2023/07/09 07:01:03;;;;;;;5.32;3.60;;;27.10;74.90;;;;;;5014694;28;20029;-77
2023/07/09 07:03:29;;;;;;;3.95;3.30;;;27.10;74.40;;;;;;4996496;28;20080;-77
2023/07/09 07:05:55;;;;;;;5.45;3.38;;;27.10;74.30;;;;;;5013883;28;20044;-77
2023/07/09 07:08:23;;;;;;;4.75;4.07;;;27.20;74.00;;;;;;5013209;28;20037;-77
2023/07/09 07:10:50;;;;;;;6.63;3.97;;;27.20;73.80;;;;;;4996508;28;20030;-77
2023/07/09 07:13:16;;;;;;;5.13;3.10;;;27.30;73.60;;;;;;5014476;28;20014;-77
2023/07/09 07:15:48;;;;;;;4.68;3.65;;;27.40;73.30;;;;;;5014758;28;20030;-77
2023/07/09 07:18:14;;;;;;;5.85;3.75;;;27.40;73.20;;;;;;5013741;28;20066;-77
2023/07/09 07:20:40;;;;;;;3.80;3.13;;;27.50;72.80;;;;;;5013662;28;20083;-77
2023/07/09 07:23:05;;;;;;;4.13;3.45;;;27.60;72.50;;;;;;5014137;28;20133;-78
2023/07/09 07:25:32;;;;;;;3.60;3.15;;;27.60;72.00;;;;;;4996504;28;20029;-77
2023/07/09 07:27:58;;;;;;;4.45;3.45;;;27.70;71.70;;;;;;5013907;28;20026;-77
2023/07/09 07:30:24;;;;;;;6.78;4.05;;;27.70;71.50;;;;;;5014012;28;20052;-77
2023/07/09 07:32:49;;;;;;;5.18;3.58;;;27.80;71.50;;;;;;5013816;28;20026;-77
2023/07/09 07:35:17;;;;;;;4.45;3.83;;;27.90;71.60;;;;;;5014189;28;20018;-77
2023/07/09 07:37:43;;;;;;;5.05;3.47;;;27.90;71.30;;;;;;5013136;28;20018;-78
2023/07/09 07:40:10;;;;;;;4.20;3.20;;;28.00;71.40;;;;;;5013743;28;20194;-78
2023/07/09 07:42:36;;;;;;;4.90;3.35;;;28.00;71.40;;;;;;5013597;28;20145;-77
2023/07/09 07:45:03;;;;;;;5.05;3.42;;;28.10;71.20;;;;;;4996379;28;20121;-78
2023/07/09 07:47:29;;;;;;;5.57;3.53;;;28.10;70.80;;;;;;5013299;28;20328;-77
2023/07/09 07:49:56;;;;;;;9.88;3.90;;;28.20;70.60;;;;;;5013137;28;20486;-77
2023/07/09 07:52:22;;;;;;;6.03;3.90;;;28.20;70.50;;;;;;5009902;28;20085;-80
2023/07/09 07:54:47;;;;;;;5.85;3.83;;;28.30;70.40;;;;;;5012352;28;20400;-77
2023/07/09 07:57:13;;;;;;;5.63;3.83;;;28.30;70.40;;;;;;4994226;28;20018;-77
2023/07/09 07:59:39;;;;;;;7.57;4.07;;;28.40;70.50;;;;;;5011135;28;20428;-77
2023/07/09 08:02:10;;;;;;;4.05;3.22;;;28.50;71.20;;;;;;5013226;28;20113;-77
2023/07/09 08:04:36;;;;;;;5.85;3.40;;;28.50;71.40;;;;;;5007888;28;20037;-77
2023/07/09 08:07:02;;;;;;;5.95;3.33;;;28.60;71.10;;;;;;5008428;28;20108;-77
2023/07/09 08:09:29;;;;;;;4.72;3.22;;;28.70;70.60;;;;;;5015639;28;20184;-77
2023/07/09 08:11:55;;;;;;;5.03;3.63;;;28.70;71.00;;;;;;4993952;28;20038;-77
2023/07/09 08:14:21;;;;;;;6.85;4.05;;;28.80;71.60;;;;;;5009432;28;20386;-77
2023/07/09 08:16:47;;;;;;;33.33;8.70;;;28.90;72.00;;;;;;5029589;28;20039;-81
2023/07/09 08:19:19;;;;;;;11.20;4.82;;;28.90;72.40;;;;;;5017211;28;20069;-82
2023/07/09 08:21:45;;;;;;;4.88;3.65;;;28.90;72.40;;;;;;4996072;28;20041;-81
2023/07/09 08:24:12;;;;;;;5.38;3.80;;;29.00;72.10;;;;;;5007564;28;20185;-81
2023/07/09 08:26:37;;;;;;;5.03;3.55;;;29.10;72.70;;;;;;5013366;28;20036;-81
2023/07/09 08:29:04;;;;;;;5.35;3.50;;;29.10;72.60;;;;;;5005195;28;20038;-81
2023/07/09 08:31:30;;;;;;;7.25;3.80;;;29.10;72.10;;;;;;4992164;28;20026;-81
2023/07/09 08:33:56;;;;;;;5.30;3.03;;;29.20;72.40;;;;;;5011887;28;20056;-81
2023/07/09 08:36:23;;;;;;;5.25;3.90;;;29.20;72.10;;;;;;5005478;28;20105;-82
2023/07/09 08:38:48;;;;;;;5.15;3.70;;;29.30;71.70;;;;;;5010060;28;20480;-82
2023/07/09 08:41:37;;;;;;;5.15;3.70;;;29.40;71.10;;;;;;5009606;28;20026;-82
2023/07/09 08:44:17;;;;;;;4.88;3.45;;;29.40;70.80;;;;;;5011754;28;20022;-82
2023/07/09 08:46:58;;;;;;;6.95;3.65;;;29.50;71.20;;;;;;5009227;28;20025;-81
2023/07/09 08:49:40;;;;;;;9.15;4.03;;;29.50;72.40;;;;;;5010663;28;20048;-82
2023/07/09 08:52:25;;;;;;;6.10;3.55;;;29.60;72.00;;;;;;5012660;28;20038;-82
2023/07/09 08:54:52;;;;;;;8.57;4.05;;;29.70;71.90;;;;;;5011234;28;20030;-82
2023/07/09 08:57:26;;;;;;;5.43;3.35;;;29.80;72.30;;;;;;5013982;28;20084;-82
2023/07/09 09:00:01;;;;;;;11.30;4.35;;;29.90;71.80;;;;;;4998212;28;20038;-82
2023/07/09 09:02:41;;;;;;;4.95;3.85;;;30.00;72.70;;;;;;4990275;28;20061;-82
2023/07/09 09:05:09;;;;;;;7.05;3.85;;;30.00;72.80;;;;;;5015965;28;20064;-82
2023/07/09 09:07:43;;;;;;;5.07;3.42;;;30.10;72.40;;;;;;5014697;28;20037;-82
2023/07/09 09:10:21;;;;;;;11.77;5.00;;;30.20;72.00;;;;;;4986231;28;20045;-82
2023/07/09 09:13:09;;;;;;;9.38;4.15;;;30.20;72.10;;;;;;4987704;28;20033;-82
2023/07/09 09:15:40;;;;;;;5.68;3.72;;;30.30;72.60;;;;;;5016058;28;20092;-82
2023/07/09 09:18:27;;;;;;;9.68;4.47;;;30.40;72.40;;;;;;4993274;28;20421;-82
2023/07/09 09:21:07;;;;;;;7.00;3.47;;;30.40;71.90;;;;;;5015165;28;20026;-82
2023/07/09 09:23:52;;;;;;;;;;;30.50;72.60;;;;;;5092152;23;20074;-79
2023/07/09 09:26:41;;;;;;;12.35;5.35;;;30.60;72.90;;;;;;4983233;28;19910;-78
2023/07/09 09:29:15;;;;;;;5.63;3.90;;;30.70;73.60;;;;;;4990965;28;20050;-78
2023/07/09 09:31:46;;;;;;;5.05;3.78;;;30.80;72.60;;;;;;4993252;28;20026;-77
2023/07/09 09:34:20;;;;;;;4.25;3.38;;;30.90;72.30;;;;;;4999505;28;20026;-78
2023/07/09 09:36:46;;;;;;;6.32;3.35;;;31.00;72.30;;;;;;5006029;28;20136;-78
2023/07/09 09:39:12;;;;;;;6.53;4.50;;;31.00;71.80;;;;;;5014530;28;20159;-78
2023/07/09 09:41:38;;;;;;;5.93;4.00;;;31.10;71.40;;;;;;5014899;28;20066;-78
2023/07/09 09:44:05;;;;;;;5.88;3.92;;;31.20;71.50;;;;;;5013863;28;20049;-78
2023/07/09 09:46:32;;;;;;;5.22;4.05;;;31.30;71.90;;;;;;5013334;28;20026;-78
2023/07/09 09:49:03;;;;;;;7.07;4.10;;;31.40;71.60;;;;;;5013481;28;20037;-78
2023/07/09 09:51:29;;;;;;;5.07;3.65;;;31.40;71.50;;;;;;5015702;28;20030;-78
2023/07/09 09:54:01;;;;;;;4.95;3.38;;;31.50;71.60;;;;;;5014992;28;20033;-78
2023/07/09 09:56:34;;;;;;;5.88;4.07;;;31.50;71.50;;;;;;5014548;28;20113;-78
2023/07/09 09:59:01;;;;;;;5.50;3.72;;;31.50;71.60;;;;;;5008621;28;20111;-78
2023/07/09 10:01:34;;;;;;;6.25;3.78;;;31.60;71.60;;;;;;5010482;28;20026;-78
2023/07/09 10:04:02;;;;;;;6.40;3.85;;;31.70;71.30;;;;;;5015434;28;20466;-78
2023/07/09 10:06:39;;;;;;;4.43;4.03;;;31.80;71.30;;;;;;5013567;28;20022;-78
2023/07/09 10:09:24;;;;;;;4.63;3.65;;;31.90;71.40;;;;;;5015408;28;20336;-78
2023/07/09 10:12:18;;;;;;;4.13;3.33;;;32.00;71.30;;;;;;5014276;28;20030;-78
2023/07/09 10:14:50;;;;;;;5.22;3.85;;;32.00;71.20;;;;;;5014554;28;20018;-78
2023/07/09 10:17:38;;;;;;;8.25;4.53;;;32.10;70.80;;;;;;5012986;28;20478;-78
2023/07/09 10:20:03;;;;;;;4.88;3.67;;;32.10;70.90;;;;;;5010295;28;20057;-84
2023/07/09 10:22:42;;;;;;;4.07;3.20;;;32.30;71.30;;;;;;5008898;28;20030;-78
2023/07/09 10:25:17;;;;;;;3.63;3.17;;;32.40;70.80;;;;;;4990611;28;20030;-81
2023/07/09 10:28:04;;;;;;;4.38;3.38;;;32.50;70.40;;;;;;4989196;28;20124;-81
2023/07/09 10:30:39;;;;;;;3.67;3.08;;;32.70;70.30;;;;;;4985782;28;20030;-81
2023/07/09 10:33:13;;;;;;;4.80;3.53;;;32.80;69.70;;;;;;4989448;28;20081;-81
2023/07/09 10:36:01;;;;;;;4.38;3.47;;;32.90;69.70;;;;;;4991928;28;20030;-80
2023/07/09 10:38:52;;;;;;;5.47;3.33;;;33.10;68.90;;;;;;4988327;28;20023;-81
2023/07/09 10:41:19;;;;;;;4.18;2.80;;;33.20;68.30;;;;;;4991866;28;20026;-81
2023/07/09 10:43:52;;;;;;;4.05;3.30;;;33.20;68.40;;;;;;4994078;28;20109;-81
2023/07/09 10:46:24;;;;;;;4.70;3.25;;;33.30;68.30;;;;;;4991375;28;20022;-81
2023/07/09 10:48:55;;;;;;;5.07;3.35;;;33.30;67.90;;;;;;4993799;28;20474;-81
2023/07/09 10:51:32;;;;;;;4.55;3.40;;;33.50;67.90;;;;;;4995116;28;20077;-81
2023/07/09 10:54:15;;;;;;;4.22;3.28;;;33.60;67.60;;;;;;4984695;28;20031;-81
2023/07/09 10:56:45;;;;;;;4.97;3.30;;;33.70;66.80;;;;;;4987352;28;20019;-81
2023/07/09 10:59:16;;;;;;;;;;;33.80;66.60;;;;;;4984013;28;20130;-81
2023/07/09 11:01:46;;;;;;;4.50;3.47;;;33.90;67.00;;;;;;4971687;28;20422;-81
2023/07/09 11:04:25;;;;;;;;;;;34.00;66.80;;;;;;4992577;28;20027;-82
2023/07/09 11:06:54;;;;;;;4.32;2.90;;;34.20;65.80;;;;;;4988086;28;19914;-81
2023/07/09 11:09:29;;;;;;;6.00;3.77;;;34.30;65.80;;;;;;4987039;28;20042;-81
2023/07/09 11:11:59;;;;;;;5.45;3.83;;;34.40;65.20;;;;;;4985088;28;20360;-78
2023/07/09 11:14:38;;;;;;;6.60;4.00;;;34.50;64.80;;;;;;4990988;28;20034;-79
2023/07/09 11:17:06;;;;;;;4.80;3.80;;;34.60;63.80;;;;;;4981580;28;20113;-79
2023/07/09 11:19:31;;;;;;;5.53;3.85;;;34.70;64.10;;;;;;4992620;28;20109;-78
2023/07/09 11:22:02;;;;;;;5.20;3.80;;;34.90;64.30;;;;;;4982145;28;20111;-78
2023/07/09 11:24:47;;;;;;;7.50;3.75;;;35.10;64.20;;;;;;4992659;28;20046;-78
2023/07/09 11:27:27;;;;;;;6.75;3.95;;;35.30;62.90;;;;;;4988362;28;20038;-78
2023/07/09 11:30:02;;;;;;;6.25;3.97;;;35.50;62.80;;;;;;4979366;28;20558;-79
2023/07/09 11:32:29;;;;;;;5.63;3.65;;;35.70;61.90;;;;;;4988171;28;20022;-79
2023/07/09 11:35:05;;;;;;;4.55;3.60;;;35.90;61.30;;;;;;4992976;28;20080;-79
2023/07/09 11:37:31;;;;;;;8.18;4.05;;;36.10;61.20;;;;;;4992090;28;20482;-79
2023/07/09 11:40:10;;;;;;;7.05;4.03;;;36.50;60.50;;;;;;4982274;28;20042;-79
2023/07/09 11:42:50;;;;;;;6.13;4.35;;;36.80;59.40;;;;;;4991137;28;20031;-79
2023/07/09 11:45:28;;;;;;;12.02;4.10;;;37.20;58.40;;;;;;4983249;28;20023;-78
2023/07/09 11:48:12;;;;;;;5.07;4.13;;;37.40;58.30;;;;;;4964723;28;20390;-80
2023/07/09 11:50:46;;;;;;;5.65;4.50;;;37.70;57.80;;;;;;4992859;28;20057;-81
2023/07/09 11:53:34;;;;;;;4.70;4.15;;;38.10;57.30;;;;;;4976847;28;20045;-81
2023/07/09 11:56:00;;;;;;;7.03;4.97;;;38.30;56.50;;;;;;4981010;28;20037;-81
2023/07/09 11:58:26;;;;;;;5.35;4.45;;;38.50;56.20;;;;;;4988720;28;20030;-81
2023/07/09 12:00:55;;;;;;;4.97;3.63;;;38.70;55.50;;;;;;4981577;28;20036;-82
2023/07/09 12:03:29;;;;;;;6.00;4.03;;;38.90;54.50;;;;;;4977710;28;20022;-82
2023/07/09 12:06:00;;;;;;;3.92;3.53;;;39.10;54.30;;;;;;4977175;28;20038;-82
2023/07/09 12:08:38;;;;;;;5.18;3.75;;;39.10;53.50;;;;;;4986685;28;20043;-81
2023/07/09 12:11:04;;;;;;;4.75;3.35;;;39.20;52.80;;;;;;4988940;28;20471;-83
2023/07/09 12:13:39;;;;;;;3.90;3.47;;;39.40;53.30;;;;;;4982778;28;20022;-82
2023/07/09 12:16:20;;;;;;;5.28;3.75;;;39.50;52.50;;;;;;4987021;28;20034;-82
2023/07/09 12:18:46;;;;;;;3.33;2.92;;;39.60;52.90;;;;;;4984136;28;20022;-81
2023/07/09 12:21:12;;;;;;;4.32;3.50;;;39.70;51.90;;;;;;4974670;28;20034;-81
2023/07/09 12:23:40;;;;;;;6.57;3.45;;;39.90;51.90;;;;;;4997643;28;20471;-81
2023/07/09 12:26:11;;;;;;;5.43;3.65;;;40.00;51.70;;;;;;4997540;28;20061;-81
2023/07/09 12:28:37;;;;;;;4.03;3.28;;;40.10;51.50;;;;;;5013676;28;20492;-81
2023/07/09 12:31:02;;;;;;;7.80;2.97;;;40.30;50.40;;;;;;4985453;28;20500;-81
2023/07/09 12:33:28;;;;;;;4.47;3.30;;;40.40;50.40;;;;;;5007208;28;20026;-81
2023/07/09 12:36:03;;;;;;;4.60;3.53;;;40.50;49.90;;;;;;5002940;28;20105;-81
2023/07/09 12:38:43;;;;;;;4.47;3.30;;;40.50;50.40;;;;;;5006064;28;20026;-80
2023/07/09 12:41:32;;;;;;;7.57;3.83;;;40.60;49.90;;;;;;5016111;28;20034;-80
2023/07/09 12:43:58;;;;;;;3.92;2.88;;;40.70;50.40;;;;;;5008038;28;20034;-80
2023/07/09 12:46:24;;;;;;;3.47;3.15;;;40.70;50.10;;;;;;4998870;28;20079;-80
2023/07/09 12:48:50;;;;;;;4.63;3.33;;;40.90;50.30;;;;;;4998144;28;20030;-80
2023/07/09 12:51:22;;;;;;;3.58;3.28;;;40.90;50.00;;;;;;4998988;28;20083;-80
2023/07/09 12:53:48;;;;;;;9.32;3.28;;;41.00;49.20;;;;;;4998377;28;20026;-80
2023/07/09 12:56:17;;;;;;;4.70;3.63;;;41.00;49.00;;;;;;5015522;28;20041;-80
2023/07/09 12:58:43;;;;;;;4.45;3.03;;;41.10;48.20;;;;;;5011336;28;20026;-80